Time;durP1;ratioP1;P1;durP2;ratioP2;P2;SDS_P1;SDS_P2;PMS_P1;PMS_P2;Temp;Humidity;BMP_temperature;BMP_pressure;BME280_temperature;BME280_humidity;BME280_pressure;Samples;Min_cycle;Max_cycle;Signal;HPM_P1;HPM_P2
2022/05/20 00:00:43;;;;;;;9.80;9.17;;;;;;;9.13;73.63;93826.78;5027403;28;20226;-73
2022/05/20 00:03:10;;;;;;;9.73;9.27;;;;;;;9.13;73.49;93839.03;5029261;28;20183;-73
2022/05/20 00:05:36;;;;;;;9.23;8.93;;;;;;;9.05;73.13;93832.41;5026716;28;20254;-74
2022/05/20 00:08:01;;;;;;;9.37;8.77;;;;;;;9.14;72.79;93840.59;5028997;28;20191;-72
2022/05/20 00:10:30;;;;;;;9.90;9.50;;;;;;;9.02;73.18;93829.47;5028300;28;20230;-73
2022/05/20 00:12:56;;;;;;;9.67;9.17;;;;;;;8.96;73.35;93828.63;5028014;28;20203;-75
2022/05/20 00:15:24;;;;;;;9.43;8.97;;;;;;;9.15;73.22;93837.75;5027535;28;20231;-73
2022/05/20 00:17:50;;;;;;;9.90;9.50;;;;;;;9.03;74.89;93833.66;5028933;28;20195;-73
2022/05/20 00:20:18;;;;;;;8.80;8.50;;;;;;;9.09;74.23;93837.94;5026594;28;20230;-73
2022/05/20 00:22:43;;;;;;;9.63;9.13;;;;;;;9.05;74.43;93836.81;5027460;28;20219;-73
2022/05/20 00:27:55;;;;;;;10.00;9.60;;;;;;;8.99;74.69;93848.19;5026883;28;20202;-72
2022/05/20 00:30:21;;;;;;;9.27;8.97;;;;;;;8.92;74.05;93832.72;5027735;28;20234;-73
2022/05/20 00:32:47;;;;;;;9.67;9.27;;;;;;;9.14;72.84;93840.59;5027744;28;20191;-73
2022/05/20 00:35:13;;;;;;;9.90;9.50;;;;;;;9.15;74.34;93844.78;5024493;28;20286;-73
2022/05/20 00:37:43;;;;;;;9.83;9.43;;;;;;;9.19;74.20;93853.69;5028912;28;20249;-73
2022/05/20 00:40:12;;;;;;;9.57;9.17;;;;;;;8.79;75.83;93832.25;5027456;28;20198;-73
2022/05/20 00:42:37;;;;;;;9.90;9.50;;;;;;;8.96;76.70;93861.69;5027543;28;20266;-73
2022/05/20 00:45:04;;;;;;;10.03;9.63;;;;;;;8.90;76.94;93860.03;5027844;28;20190;-72
2022/05/20 00:47:29;;;;;;;9.20;8.80;;;;;;;8.93;75.73;93864.78;5028647;28;20706;-73
2022/05/20 00:49:58;;;;;;;9.40;9.00;;;;;;;8.89;74.78;93858.44;5030950;28;20195;-73
2022/05/20 00:52:26;;;;;;;18.17;17.30;;;;;;;8.96;74.65;93861.69;5031721;28;20207;-73
2022/05/20 00:55:00;;;;;;;8.87;8.57;;;;;;;8.96;75.16;93864.28;5030924;28;20182;-73
2022/05/20 00:57:32;;;;;;;10.03;9.63;;;;;;;8.85;75.13;93860.75;5031542;28;20210;-73
2022/05/20 01:00:03;;;;;;;9.33;8.93;;;;;;;8.79;76.33;93866.91;5030070;28;20190;-73
2022/05/20 01:02:32;;;;;;;9.70;9.30;;;;;;;8.73;76.72;93838.41;5030726;28;20344;-73
2022/05/20 01:05:03;;;;;;;9.77;9.37;;;;;;;8.76;76.51;93869.19;5030414;28;20262;-73
2022/05/20 01:07:31;;;;;;;9.60;9.20;;;;;;;8.69;76.52;93858.94;5031454;28;20191;-73
2022/05/20 01:09:57;;;;;;;9.73;9.33;;;;;;;8.57;76.28;93847.00;5031069;28;20201;-73
2022/05/20 01:12:24;;;;;;;10.33;9.93;;;;;;;8.30;76.47;93817.38;5032542;28;20195;-73
2022/05/20 01:14:51;;;;;;;9.70;9.30;;;;;;;8.51;76.50;93847.94;5030187;28;20205;-73
2022/05/20 01:17:17;;;;;;;9.00;8.70;;;;;;;8.46;76.18;93837.44;5031605;28;20288;-73
2022/05/20 01:19:55;;;;;;;9.53;9.20;;;;;;;8.41;76.53;93845.16;5030461;28;20254;-73
2022/05/20 01:22:39;;;;;;;9.90;9.50;;;;;;;8.57;76.22;93847.81;5029999;28;20249;-73
2022/05/20 01:25:06;;;;;;;9.40;9.10;;;;;;;8.54;76.54;93842.28;5029032;28;20199;-73
2022/05/20 01:27:32;;;;;;;10.03;9.63;;;;;;;8.27;76.52;93838.69;5031112;28;20199;-73
2022/05/20 01:29:57;;;;;;;9.10;8.70;;;;;;;8.28;76.62;93850.69;5029058;28;20187;-73
2022/05/20 01:32:23;;;;;;;9.60;9.20;;;;;;;8.30;76.69;93853.81;5030861;28;20198;-73
2022/05/20 01:34:48;;;;;;;9.17;8.83;;;;;;;8.38;75.56;93845.63;5029424;28;20236;-73
2022/05/20 01:37:14;;;;;;;9.10;8.70;;;;;;;8.06;76.23;93827.88;5031411;28;20219;-72
2022/05/20 01:39:45;;;;;;;9.27;8.87;;;;;;;8.12;77.13;93823.59;5030035;28;20198;-81
2022/05/20 01:42:19;;;;;;;10.00;9.27;;;;;;;8.35;77.16;93852.09;5028166;28;20337;-79
2022/05/20 01:44:52;;;;;;;8.90;8.60;;;;;;;8.38;76.75;93845.63;5029756;28;20182;-79
2022/05/20 01:47:37;;;;;;;9.60;9.20;;;;;;;8.34;76.74;93847.94;5030270;28;20202;-80
2022/05/20 01:50:21;;;;;;;9.53;9.17;;;;;;;8.21;76.86;93850.78;5027303;28;20214;-80
2022/05/20 01:53:03;;;;;;;9.60;9.20;;;;;;;8.20;76.32;93847.38;5030590;28;20234;-74
2022/05/20 01:56:03;;;;;;;8.97;8.67;;;;;;;8.24;76.34;93847.75;5030289;28;20253;-73
2022/05/20 01:58:53;;;;;;;9.87;9.47;;;;;;;8.17;75.16;93847.84;5021212;28;20194;-73
2022/05/20 02:01:27;;;;;;;9.40;9.10;;;;;;;8.06;75.24;93848.69;5027525;28;20222;-73
2022/05/20 02:04:00;;;;;;;8.87;8.57;;;;;;;8.20;74.31;93854.41;5029235;28;20202;-72
2022/05/20 02:06:52;;;;;;;9.90;9.47;;;;;;;8.08;73.95;93843.25;5028798;28;20226;-73
2022/05/20 02:09:26;;;;;;;9.00;8.60;;;;;;;8.06;74.07;93848.69;5030099;28;20258;-73
2022/05/20 02:11:54;;;;;;;9.23;8.77;;;;;;;8.05;74.51;93847.13;5029361;28;20218;-73
2022/05/20 02:14:44;;;;;;;14.47;10.07;;;;;;;8.03;75.17;93849.16;5030674;28;20195;-73
2022/05/20 02:17:28;;;;;;;10.53;9.73;;;;;;;7.94;75.21;93854.94;5030161;28;20230;-73
2022/05/20 02:20:06;;;;;;;9.77;9.27;;;;;;;7.95;74.95;93852.13;5029538;28;20187;-73
2022/05/20 02:22:44;;;;;;;9.70;9.20;;;;;;;7.67;74.81;93805.31;5028471;28;20206;-73
2022/05/20 02:25:15;;;;;;;9.17;8.77;;;;;;;7.92;74.95;93855.19;5030239;28;20217;-73
2022/05/20 02:27:55;;;;;;;9.20;8.70;;;;;;;8.05;74.89;93848.91;5029735;28;20190;-73
2022/05/20 02:30:26;;;;;;;9.80;9.40;;;;;;;7.89;75.09;93842.66;5030157;28;20226;-73
2022/05/20 02:33:00;;;;;;;9.60;9.20;;;;;;;7.98;75.37;93854.25;5030462;28;20218;-73
2022/05/20 02:35:26;;;;;;;9.30;8.90;;;;;;;7.88;75.51;93846.28;5028174;28;20291;-73
2022/05/20 02:37:54;;;;;;;9.87;9.47;;;;;;;7.88;76.26;93856.69;5029555;28;20198;-73
2022/05/20 02:40:20;;;;;;;9.10;8.67;;;;;;;7.78;75.08;93840.88;5026953;28;20250;-73
2022/05/20 02:42:46;;;;;;;10.00;9.60;;;;;;;7.75;77.86;93850.97;5029573;28;20283;-73
2022/05/20 02:45:13;;;;;;;8.73;8.37;;;;;;;7.50;77.58;93809.66;5029338;28;20194;-73
2022/05/20 02:47:38;;;;;;;10.20;9.80;;;;;;;7.83;77.11;93859.19;5030214;28;20206;-73
2022/05/20 02:50:10;;;;;;;9.53;9.03;;;;;;;7.89;76.20;93852.28;5029045;28;20191;-73
2022/05/20 02:52:36;;;;;;;9.40;9.00;;;;;;;7.99;75.71;93837.66;5030163;28;20182;-73
2022/05/20 02:55:03;;;;;;;10.37;9.63;;;;;;;7.90;75.06;93844.25;5028437;28;20207;-73
2022/05/20 02:57:29;;;;;;;9.63;8.83;;;;;;;7.95;75.77;93848.75;5029703;28;20207;-73
2022/05/20 03:05:23;;;;;;;9.37;8.97;;;;;;;7.98;76.36;93836.06;5028461;28;20242;-73
2022/05/20 03:07:48;;;;;;;9.37;8.87;;;;;;;8.30;74.34;93835.59;5030280;28;20191;-73
2022/05/20 03:10:14;;;;;;;8.73;8.43;;;;;;;8.84;71.86;93834.94;5029018;28;20222;-73
2022/05/20 03:12:39;;;;;;;9.73;9.33;;;;;;;9.16;71.07;93823.72;5028801;28;20183;-73
2022/05/20 03:15:08;;;;;;;9.73;9.33;;;;;;;10.15;67.40;93847.91;5028731;28;20199;-73
2022/05/20 03:17:34;;;;;;;9.80;9.43;;;;;;;11.08;63.02;93843.75;5029025;28;20194;-73
2022/05/20 03:19:59;;;;;;;9.47;9.17;;;;;;;11.43;61.73;93826.69;5028880;28;20201;-74
2022/05/20 03:22:25;;;;;;;9.37;8.97;;;;;;;11.27;62.46;93839.69;5026934;28;20215;-73
2022/05/20 03:24:51;;;;;;;9.33;8.30;;;;;;;11.51;62.16;93832.25;5027978;28;20195;-74
2022/05/20 03:27:19;;;;;;;8.90;8.53;;;;;;;12.58;58.74;93858.56;5028527;28;20218;-73
2022/05/20 03:29:46;;;;;;;8.97;8.53;;;;;;;12.61;58.90;93850.16;5028735;28;20195;-73
2022/05/20 03:32:12;;;;;;;8.47;8.17;;;;;;;12.15;59.84;93838.81;5028564;28;20231;-72
2022/05/20 03:34:38;;;;;;;8.77;8.47;;;;;;;11.77;61.74;93848.88;5027274;28;20203;-73
2022/05/20 03:37:04;;;;;;;9.17;8.77;;;;;;;12.25;60.27;93856.41;5028963;28;20222;-73
2022/05/20 03:39:30;;;;;;;10.03;9.37;;;;;;;12.74;58.35;93857.53;5027225;28;20222;-73
2022/05/20 03:41:56;;;;;;;8.20;7.90;;;;;;;12.46;59.57;93871.09;5027878;28;20310;-73
2022/05/20 03:44:22;;;;;;;9.40;9.00;;;;;;;12.00;62.05;93857.09;5028706;28;20178;-73
2022/05/20 03:46:53;;;;;;;8.87;8.37;;;;;;;12.39;59.80;93857.50;5026784;28;20282;-73
2022/05/20 03:49:21;;;;;;;8.57;8.20;;;;;;;11.85;62.42;93874.53;5025672;28;20276;-78
2022/05/20 03:51:48;;;;;;;9.50;9.07;;;;;;;11.88;62.32;93881.88;5027912;28;21083;-79
2022/05/20 03:54:18;;;;;;;9.10;8.70;;;;;;;11.17;65.05;93847.47;5028172;28;20197;-77
2022/05/20 03:56:43;;;;;;;9.80;9.30;;;;;;;11.26;62.89;93877.34;5027301;28;20247;-77
2022/05/20 03:59:09;;;;;;;9.50;8.90;;;;;;;10.88;65.07;93895.84;5027326;28;20490;-78
2022/05/20 04:04:22;;;;;;;9.13;8.57;;;;;;;10.62;67.02;93894.06;5027257;28;20237;-79
2022/05/20 04:06:48;;;;;;;11.30;10.60;;;;;;;10.73;65.85;93895.72;5027620;28;20249;-79
2022/05/20 04:09:13;;;;;;;10.97;10.30;;;;;;;10.79;65.68;93892.13;5028518;28;20194;-75
2022/05/20 04:11:39;;;;;;;10.73;10.23;;;;;;;10.40;69.25;93898.53;5028128;28;20226;-79
2022/05/20 04:14:05;;;;;;;11.00;10.50;;;;;;;10.07;69.44;93846.47;5028182;28;20203;-79
2022/05/20 04:16:31;;;;;;;11.97;11.03;;;;;;;10.24;68.97;93882.94;5024598;28;20273;-78
2022/05/20 04:18:56;;;;;;;11.10;10.10;;;;;;;10.35;69.44;93880.19;5028694;28;20186;-79
2022/05/20 04:21:22;;;;;;;10.73;10.17;;;;;;;10.21;70.22;93873.00;5028683;28;20227;-78
2022/05/20 04:23:48;;;;;;;11.30;10.60;;;;;;;10.04;71.00;93882.69;5031519;28;20688;-79
2022/05/20 04:26:14;;;;;;;11.27;10.57;;;;;;;10.41;70.36;93888.88;5031977;28;20228;-81
2022/05/20 04:28:40;;;;;;;11.63;10.43;;;;;;;10.41;69.42;93868.00;5032810;28;20226;-82
2022/05/20 04:31:07;;;;;;;11.40;10.77;;;;;;;10.61;68.77;93892.47;5030712;28;20233;-74
2022/05/20 04:33:33;;;;;;;11.70;11.00;;;;;;;10.57;69.57;93880.94;5031304;28;20184;-72
2022/05/20 04:35:59;;;;;;;10.60;10.07;;;;;;;10.75;69.63;93885.81;5030322;28;20231;-72
2022/05/20 04:38:24;;;;;;;9.87;9.37;;;;;;;10.56;71.28;93865.53;5029651;28;20194;-72
2022/05/20 04:49:05;;;;;;;12.40;11.50;;;;;;;10.85;70.06;93896.34;5031830;28;20209;-76
2022/05/20 04:51:32;;;;;;;12.60;11.70;;;;;;;10.58;70.40;93900.81;5027229;28;20233;-76
2022/05/20 04:56:41;;;;;;;12.63;11.63;;;;;;;11.56;67.71;93917.78;5029574;28;20229;-75
2022/05/20 04:59:07;;;;;;;11.03;10.33;;;;;;;11.25;67.64;93846.22;5030758;28;20199;-76
2022/05/20 05:01:32;;;;;;;12.90;11.67;;;;;;;12.32;65.70;93917.97;5029392;28;20311;-75
2022/05/20 05:03:58;;;;;;;10.93;10.33;;;;;;;13.10;62.19;93929.16;5029896;28;20190;-76
2022/05/20 05:06:23;;;;;;;11.57;10.57;;;;;;;12.74;63.07;93920.44;5029966;28;20225;-76
2022/05/20 05:08:49;;;;;;;10.70;9.87;;;;;;;12.65;64.04;93924.59;5031341;28;20184;-76
2022/05/20 05:11:14;;;;;;;12.00;11.10;;;;;;;12.23;64.34;93903.00;5030229;28;20297;-76
2022/05/20 05:13:39;;;;;;;11.40;10.80;;;;;;;12.55;63.07;93927.19;5028249;28;20229;-76
2022/05/20 05:16:06;;;;;;;12.90;11.70;;;;;;;12.36;63.59;93907.72;5027259;28;20245;-76
2022/05/20 05:18:32;;;;;;;9.67;8.97;;;;;;;12.17;62.99;93909.25;5030693;28;20185;-78
2022/05/20 05:20:59;;;;;;;10.87;10.20;;;;;;;14.44;55.79;93920.25;5020728;28;20246;-76
2022/05/20 05:23:24;;;;;;;10.63;10.03;;;;;;;14.94;51.29;93932.34;5031253;28;20198;-76
2022/05/20 05:25:50;;;;;;;10.03;9.43;;;;;;;14.84;52.68;93939.53;5030247;28;20377;-76
2022/05/20 05:28:16;;;;;;;10.43;9.90;;;;;;;15.61;51.12;93940.31;5030804;28;20206;-75
2022/05/20 05:30:46;;;;;;;10.77;10.00;;;;;;;15.84;49.70;93930.91;5026762;28;20230;-78
2022/05/20 05:33:11;;;;;;;10.37;9.73;;;;;;;15.23;50.86;93921.91;5039662;28;20218;-76
2022/05/20 05:35:37;;;;;;;10.30;9.80;;;;;;;13.79;55.31;93923.06;5029270;28;20234;-79
2022/05/20 05:38:02;;;;;;;11.07;10.37;;;;;;;14.26;54.80;93906.94;5029110;28;20187;-78
2022/05/20 05:40:32;;;;;;;11.53;10.33;;;;;;;17.62;50.69;93943.16;5013882;28;20290;-78
2022/05/20 05:43:01;;;;;;;10.67;9.97;;;;;;;22.04;35.89;93947.19;5030627;28;20218;-78
2022/05/20 05:45:30;;;;;;;10.37;9.77;;;;;;;24.67;32.91;93945.72;5030078;28;20337;-79
2022/05/20 05:48:05;;;;;;;10.47;9.67;;;;;;;27.79;25.89;93939.94;5029002;28;20200;-79
2022/05/20 05:50:32;;;;;;;9.52;8.68;;;;;;;28.22;25.00;93955.75;5029176;28;20234;-78
2022/05/20 05:53:02;;;;;;;12.57;7.93;;;;;;;27.76;25.00;93939.84;5028831;28;20239;-74
2022/05/20 05:55:28;;;;;;;8.50;7.95;;;;;;;28.56;23.83;93946.06;5030352;28;20252;-71
2022/05/20 05:57:54;;;;;;;8.20;7.60;;;;;;;29.20;22.30;93954.03;5028081;28;20198;-74
2022/05/20 06:00:20;;;;;;;9.40;8.57;;;;;;;29.08;23.48;93956.13;5029963;28;20226;-75
2022/05/20 06:02:45;;;;;;;8.25;7.65;;;;;;;29.48;22.71;93951.75;5030982;28;20231;-74
2022/05/20 06:05:11;;;;;;;8.57;7.97;;;;;;;29.58;22.52;93953.81;5030697;28;20910;-71
2022/05/20 06:07:37;;;;;;;9.77;9.00;;;;;;;30.62;21.64;93950.06;5027031;28;20433;-72
2022/05/20 06:10:02;;;;;;;8.85;8.05;;;;;;;30.53;21.47;93971.16;5029833;28;20208;-72
2022/05/20 06:12:28;;;;;;;9.25;8.40;;;;;;;31.37;20.79;93954.97;5029059;28;20197;-71
2022/05/20 06:14:53;;;;;;;8.68;8.07;;;;;;;29.81;21.96;93961.06;5030734;28;20270;-72
2022/05/20 06:17:19;;;;;;;9.35;8.50;;;;;;;30.28;21.26;93948.56;5029947;28;20745;-72
2022/05/20 06:19:44;;;;;;;8.75;8.05;;;;;;;29.01;22.27;93951.41;5029106;28;20195;-72
2022/05/20 06:22:10;;;;;;;9.68;8.70;;;;;;;31.68;20.19;93961.72;5030204;28;20230;-72
2022/05/20 06:24:37;;;;;;;8.77;7.97;;;;;;;29.24;22.91;93938.72;5028914;28;20187;-72
2022/05/20 06:27:03;;;;;;;8.88;8.27;;;;;;;30.78;21.47;93960.66;5029107;28;20227;-72
2022/05/20 06:29:28;;;;;;;9.13;8.43;;;;;;;32.35;20.02;93960.88;5029571;28;20213;-72
2022/05/20 06:31:54;;;;;;;9.10;8.50;;;;;;;30.88;20.43;93962.66;5027974;28;20222;-72
2022/05/20 06:34:19;;;;;;;8.85;8.20;;;;;;;29.69;21.41;93944.00;5028783;28;20190;-72
2022/05/20 06:42:13;;;;;;;10.20;9.43;;;;;;;17.27;43.60;93920.72;5028749;28;20249;-72
2022/05/20 06:44:38;;;;;;;10.10;9.20;;;;;;;17.22;44.77;93923.44;5028627;28;20193;-72
2022/05/20 06:47:04;;;;;;;12.53;9.90;;;;;;;17.67;45.26;93931.72;5028158;28;20230;-72
2022/05/20 06:49:30;;;;;;;10.87;10.17;;;;;;;17.44;45.47;93928.94;5030673;28;20256;-72
2022/05/20 06:51:56;;;;;;;10.10;9.30;;;;;;;16.96;46.48;93924.88;5028759;28;20249;-71
2022/05/20 06:54:22;;;;;;;11.63;10.13;;;;;;;17.21;46.04;93921.84;5029575;28;20177;-72
2022/05/20 06:56:48;;;;;;;10.43;9.80;;;;;;;17.18;46.10;93921.66;5028044;28;20238;-72
2022/05/20 06:59:14;;;;;;;10.83;10.07;;;;;;;16.79;47.00;93929.84;5029729;28;20199;-74
2022/05/20 07:01:40;;;;;;;9.73;9.13;;;;;;;16.83;45.19;93927.41;5029300;28;20249;-74
2022/05/20 07:04:06;;;;;;;11.63;10.70;;;;;;;17.11;45.26;93929.94;5029511;28;20175;-74
2022/05/20 07:06:32;;;;;;;11.67;10.40;;;;;;;17.26;45.72;93924.41;5028838;28;20242;-73
2022/05/20 07:08:59;;;;;;;10.53;9.73;;;;;;;17.13;45.54;93919.88;5029516;28;20195;-73
2022/05/20 07:11:25;;;;;;;11.47;10.67;;;;;;;16.87;46.63;93921.28;5028096;28;20219;-73
2022/05/20 07:13:54;;;;;;;11.23;10.27;;;;;;;15.94;48.13;93907.88;5028367;28;20258;-73
2022/05/20 07:16:21;;;;;;;10.27;9.67;;;;;;;16.80;46.38;93920.84;5029141;28;20232;-73
2022/05/20 07:18:47;;;;;;;11.93;10.10;;;;;;;17.03;46.43;93927.94;5029120;28;20177;-74
2022/05/20 07:21:13;;;;;;;11.10;10.30;;;;;;;17.04;45.96;93910.25;5028700;28;20230;-74
2022/05/20 07:23:38;;;;;;;10.73;9.97;;;;;;;17.01;46.00;93924.78;5029163;28;20199;-73
2022/05/20 07:26:05;;;;;;;9.50;8.70;;;;;;;17.07;45.11;93923.66;5028777;28;20266;-74
2022/05/20 07:28:32;;;;;;;10.13;9.13;;;;;;;16.79;46.17;93926.41;5029777;28;20195;-73
2022/05/20 07:30:58;;;;;;;10.70;9.90;;;;;;;17.03;46.83;93921.84;5027194;28;20230;-73
2022/05/20 07:33:23;;;;;;;10.40;9.70;;;;;;;17.00;48.72;93925.06;5029482;28;20217;-74
2022/05/20 07:35:49;;;;;;;9.70;9.10;;;;;;;17.02;45.48;93925.56;5029018;28;20294;-74
2022/05/20 07:38:15;;;;;;;10.27;9.67;;;;;;;17.04;46.13;93929.47;5028581;28;20190;-74
2022/05/20 07:40:43;;;;;;;9.77;9.17;;;;;;;17.16;47.10;93924.56;5029363;28;20238;-74
2022/05/20 07:43:09;;;;;;;9.83;9.23;;;;;;;17.59;44.42;93918.13;5028606;28;20219;-74
2022/05/20 07:45:34;;;;;;;10.27;9.53;;;;;;;17.12;46.55;93915.66;5053468;28;20241;-73
2022/05/20 07:48:00;;;;;;;9.63;8.97;;;;;;;17.31;46.76;93926.19;5029657;28;20198;-73
2022/05/20 07:50:26;;;;;;;9.30;8.70;;;;;;;17.10;46.27;93920.44;5029229;28;20294;-74
2022/05/20 07:55:43;;;;;;;10.37;9.20;;;;;;;17.65;42.39;93915.41;5027016;28;20237;-74
2022/05/20 07:58:13;;;;;;;8.97;8.37;;;;;;;17.76;41.81;93919.44;5028553;28;20187;-73
2022/05/20 08:00:39;;;;;;;9.50;9.00;;;;;;;17.42;42.04;93917.84;5028334;28;20289;-74
2022/05/20 08:03:07;;;;;;;10.23;9.53;;;;;;;17.59;43.22;93919.97;5028997;28;20249;-73
2022/05/20 08:05:35;;;;;;;9.50;8.90;;;;;;;17.63;41.54;93899.84;5027731;28;20308;-74
2022/05/20 08:08:03;;;;;;;9.57;8.97;;;;;;;17.91;43.34;93917.31;5026971;28;20187;-74
2022/05/20 08:10:31;;;;;;;10.87;10.07;;;;;;;18.15;41.37;93907.34;5028710;28;20233;-74
2022/05/20 08:12:57;;;;;;;10.00;9.40;;;;;;;18.22;41.65;93906.97;5029083;28;20234;-74
2022/05/20 08:15:23;;;;;;;10.43;9.33;;;;;;;18.10;41.86;93888.94;5028017;28;20234;-74
2022/05/20 08:17:48;;;;;;;9.70;9.07;;;;;;;18.15;41.79;93890.72;5023803;28;20194;-74
2022/05/20 08:20:22;;;;;;;9.90;9.23;;;;;;;18.27;40.71;93907.63;5028788;28;20243;-75
2022/05/20 08:22:52;;;;;;;11.90;9.57;;;;;;;18.13;41.15;93906.09;5026896;28;20228;-74
2022/05/20 08:25:17;;;;;;;9.20;8.60;;;;;;;17.91;43.75;93898.03;5027604;28;20231;-73
2022/05/20 08:27:43;;;;;;;11.53;9.23;;;;;;;17.96;42.28;93900.59;5027139;28;20198;-74
2022/05/20 08:30:13;;;;;;;10.70;10.00;;;;;;;18.35;40.33;93899.03;5028371;28;20254;-74
2022/05/20 08:32:39;;;;;;;10.60;9.80;;;;;;;18.21;39.34;93890.31;5028378;28;20187;-74
2022/05/20 08:35:05;;;;;;;9.60;8.77;;;;;;;17.99;41.34;93889.44;5043588;28;20255;-74
2022/05/20 08:37:33;;;;;;;9.33;8.73;;;;;;;17.66;39.25;93901.91;5028374;28;20246;-73
2022/05/20 08:39:59;;;;;;;8.90;8.40;;;;;;;18.05;39.99;93902.25;5028987;28;20221;-74
2022/05/20 08:42:29;;;;;;;9.83;9.10;;;;;;;18.39;38.33;93900.06;5027872;28;20220;-74
2022/05/20 08:44:55;;;;;;;8.37;7.93;;;;;;;18.43;37.23;93901.00;5052453;28;20191;-74
2022/05/20 08:47:24;;;;;;;8.50;7.93;;;;;;;18.28;40.30;93887.28;5029048;28;20192;-74
2022/05/20 08:49:57;;;;;;;8.23;7.93;;;;;;;18.07;37.49;93886.88;5028331;28;20230;-73
2022/05/20 08:52:24;;;;;;;9.33;8.63;;;;;;;18.43;39.55;93889.63;5027832;28;20215;-72
2022/05/20 08:54:49;;;;;;;8.97;8.27;;;;;;;18.54;38.46;93881.22;5028624;28;20254;-74
2022/05/20 08:57:25;;;;;;;8.53;7.93;;;;;;;19.01;36.27;93891.31;5028519;28;20223;-75
2022/05/20 08:59:51;;;;;;;8.00;7.60;;;;;;;18.49;36.74;93881.31;5028949;28;20203;-72
2022/05/20 09:02:17;;;;;;;7.83;7.27;;;;;;;18.53;38.16;93878.88;5027298;28;20240;-74
2022/05/20 09:04:43;;;;;;;12.63;8.23;;;;;;;18.48;36.45;93873.69;5028494;28;20202;-73
2022/05/20 09:07:11;;;;;;;8.40;7.90;;;;;;;19.01;36.39;93874.66;5028043;28;20238;-74
2022/05/20 09:09:52;;;;;;;8.90;8.40;;;;;;;19.13;36.04;93873.03;5029945;28;20197;-74
2022/05/20 09:12:38;;;;;;;8.77;8.37;;;;;;;19.09;34.48;93866.00;5032030;28;20230;-81
2022/05/20 09:18:20;;;;;;;8.10;7.70;;;;;;;19.04;36.90;93851.00;5031878;28;20291;-79
2022/05/20 09:20:52;;;;;;;8.83;8.23;;;;;;;19.41;37.01;93841.94;5023936;28;20236;-78
2022/05/20 09:23:22;;;;;;;8.57;8.07;;;;;;;19.40;34.78;93816.53;5030355;28;20219;-79
2022/05/20 09:26:21;;;;;;;8.47;8.07;;;;;;;19.61;32.84;93851.25;5031451;28;20240;-81
2022/05/20 09:28:52;;;;;;;8.23;7.83;;;;;;;19.09;33.18;93826.28;5031610;28;20192;-78
2022/05/20 09:31:43;;;;;;;8.57;8.17;;;;;;;19.18;31.98;93843.00;5031394;28;20242;-78
2022/05/20 09:34:15;;;;;;;8.40;7.93;;;;;;;19.24;29.79;93839.16;5031319;28;20228;-78
2022/05/20 09:37:01;;;;;;;9.23;8.63;;;;;;;19.40;32.81;93835.09;5030060;28;20288;-79
2022/05/20 09:39:55;;;;;;;7.67;7.37;;;;;;;19.77;32.54;93833.88;5031538;28;20200;-79
2022/05/20 09:42:27;;;;;;;8.40;8.00;;;;;;;19.80;32.41;93817.38;5026823;28;20266;-79
2022/05/20 09:44:58;;;;;;;8.00;7.60;;;;;;;20.07;31.26;93828.56;5030387;28;20196;-79
2022/05/20 09:47:32;;;;;;;7.70;7.30;;;;;;;20.24;29.37;93827.84;5031169;28;20284;-79
2022/05/20 09:50:02;;;;;;;8.40;7.80;;;;;;;20.00;27.18;93833.50;5031489;28;20246;-79
2022/05/20 09:52:46;;;;;;;9.43;8.83;;;;;;;19.91;28.13;93832.69;5031184;28;20180;-79
2022/05/20 09:55:22;;;;;;;7.53;7.13;;;;;;;19.59;30.16;93825.06;5029079;28;20223;-79
2022/05/20 09:57:49;;;;;;;7.67;7.27;;;;;;;19.86;27.04;93810.84;5031107;28;20188;-79
2022/05/20 10:00:25;;;;;;;8.40;7.80;;;;;;;20.13;28.08;93827.34;5030698;28;20320;-81
2022/05/20 10:03:10;;;;;;;8.27;7.67;;;;;;;20.09;29.09;93815.78;5054075;28;20267;-81
2022/05/20 10:05:45;;;;;;;8.43;8.00;;;;;;;19.90;29.19;93825.84;5030857;28;20729;-78
2022/05/20 10:08:28;;;;;;;8.63;8.03;;;;;;;19.81;30.48;93813.63;5029200;28;20865;-78
2022/05/20 10:11:08;;;;;;;8.93;8.30;;;;;;;19.79;31.97;93800.69;5030649;28;20244;-79
2022/05/20 10:13:36;;;;;;;8.60;8.13;;;;;;;20.22;30.43;93808.81;5030835;28;20197;-79
2022/05/20 10:16:24;;;;;;;8.67;8.00;;;;;;;20.35;31.07;93803.41;5028933;28;20264;-79
2022/05/20 10:19:27;;;;;;;8.90;7.80;;;;;;;20.53;29.92;93810.28;5031135;28;20330;-79
2022/05/20 10:21:59;;;;;;;8.73;8.33;;;;;;;20.73;27.28;93808.13;5029995;28;20320;-80
2022/05/20 10:24:34;;;;;;;8.20;7.80;;;;;;;20.39;28.41;93790.28;5030140;28;20201;-79
2022/05/20 10:27:02;;;;;;;8.10;7.70;;;;;;;20.45;27.22;93803.09;5030127;28;20215;-79
2022/05/20 10:32:36;;;;;;;8.47;8.07;;;;;;;20.40;30.35;93792.66;5030431;28;20207;-78
2022/05/20 10:35:19;;;;;;;8.00;7.60;;;;;;;20.14;30.10;93794.44;5030790;28;20181;-78
2022/05/20 10:37:57;;;;;;;8.13;7.73;;;;;;;20.62;28.24;93791.72;5030056;28;20190;-79
2022/05/20 10:40:48;;;;;;;8.10;7.70;;;;;;;20.39;28.93;93783.09;5053816;28;20234;-77
2022/05/20 10:48:34;;;;;;;7.77;7.37;;;;;;;20.36;27.56;93783.72;5028698;28;20232;-77
2022/05/20 10:49:26;;;;;;;8.23;7.83;;;;;;;20.47;27.27;93779.69;5030759;28;20208;-78
2022/05/20 10:52:02;;;;;;;7.67;7.37;;;;;;;20.15;24.81;93776.66;5029895;28;20237;-76
2022/05/20 10:54:40;;;;;;;8.40;7.90;;;;;;;20.22;26.43;93775.13;5029912;28;20189;-79
2022/05/20 10:57:18;;;;;;;8.03;7.63;;;;;;;20.57;28.41;93763.47;5028202;28;21216;-76
2022/05/20 11:00:05;;;;;;;8.50;7.90;;;;;;;20.86;29.50;93764.72;5028026;28;20209;-77
2022/05/20 11:02:49;;;;;;;8.60;7.80;;;;;;;20.90;27.13;93758.47;5029292;28;20241;-77
2022/05/20 11:05:33;;;;;;;7.82;7.35;;;;;;;21.31;27.34;93756.06;5028884;28;20230;-78
2022/05/20 11:08:04;;;;;;;8.18;7.72;;;;;;;21.54;27.57;93754.75;5029060;28;20201;-79
2022/05/20 11:10:40;;;;;;;7.50;7.20;;;;;;;21.20;24.37;93749.53;5029956;28;20256;-78
2022/05/20 11:13:30;;;;;;;6.35;6.00;;;;;;;21.29;26.83;93733.59;5029410;28;20208;-78
2022/05/20 11:15:59;;;;;;;7.57;6.93;;;;;;;21.62;25.76;93739.91;5029249;28;20255;-78
2022/05/20 11:18:25;;;;;;;7.68;7.25;;;;;;;21.87;25.11;93741.66;5027570;28;20188;-78
2022/05/20 11:21:27;;;;;;;7.75;7.25;;;;;;;21.58;24.14;93741.63;5029872;28;20242;-77
2022/05/20 11:23:58;;;;;;;7.38;7.07;;;;;;;21.68;24.72;93734.06;5028468;28;20187;-78
2022/05/20 11:26:50;;;;;;;7.88;7.47;;;;;;;21.72;22.97;93707.63;5054654;28;20229;-78
2022/05/20 11:29:36;;;;;;;7.70;7.30;;;;;;;22.02;22.42;93733.94;5030158;28;20255;-78
2022/05/20 11:32:09;;;;;;;6.68;6.35;;;;;;;21.86;21.67;93705.56;5029267;28;20301;-78
2022/05/20 11:34:47;;;;;;;7.43;7.10;;;;;;;21.90;21.53;93730.38;5054689;28;20231;-78
2022/05/20 11:37:34;;;;;;;7.95;7.45;;;;;;;21.61;22.56;93735.66;5052394;28;20285;-78
2022/05/20 11:40:11;;;;;;;7.07;6.78;;;;;;;21.70;23.00;93707.94;5029819;28;20202;-78
2022/05/20 11:43:26;;;;;;;8.43;7.97;;;;;;;22.11;22.58;93716.06;5029914;28;20206;-80
2022/05/20 11:45:55;;;;;;;7.68;7.30;;;;;;;21.71;25.32;93714.06;4977577;28;20230;-77
2022/05/20 11:48:43;;;;;;;7.38;7.05;;;;;;;21.98;24.30;93710.97;4977536;28;20187;-78
2022/05/20 11:51:30;;;;;;;8.07;7.55;;;;;;;22.02;22.75;93710.00;5012516;28;20232;-78
2022/05/20 11:54:11;;;;;;;7.15;6.78;;;;;;;22.15;20.96;93700.22;5027312;28;20204;-78
2022/05/20 11:56:54;;;;;;;7.70;7.40;;;;;;;22.31;23.09;93706.53;5027962;28;20335;-78
2022/05/20 11:59:22;;;;;;;7.72;7.07;;;;;;;22.38;21.27;93703.34;5028309;28;20188;-80
2022/05/20 12:01:51;;;;;;;7.38;7.07;;;;;;;22.27;20.99;93692.31;5027037;28;20258;-78
2022/05/20 12:04:20;;;;;;;8.57;8.07;;;;;;;22.13;21.09;93689.13;5029419;28;20218;-79
2022/05/20 12:06:51;;;;;;;7.25;6.95;;;;;;;22.17;19.70;93698.00;5028072;28;20215;-79
2022/05/20 12:09:46;;;;;;;7.20;6.88;;;;;;;21.93;20.82;93687.22;5055466;28;20210;-78
2022/05/20 12:12:27;;;;;;;7.93;7.43;;;;;;;22.32;19.30;93689.44;5028318;28;21082;-79
2022/05/20 12:15:48;;;;;;;6.80;6.50;;;;;;;22.35;18.82;93683.47;5029182;28;20184;-79
2022/05/20 12:24:22;;;;;;;7.82;7.05;;;;;;;22.38;19.07;93672.22;5029056;28;20199;-79
2022/05/20 12:26:51;;;;;;;7.15;6.80;;;;;;;22.40;19.15;93672.63;5027172;28;20224;-78
2022/05/20 12:29:55;;;;;;;8.02;7.65;;;;;;;22.53;19.34;93668.19;5028876;28;20198;-78
2022/05/20 12:32:42;;;;;;;8.63;7.28;;;;;;;22.20;18.97;93671.56;4997493;28;20213;-78
2022/05/20 12:35:27;;;;;;;7.57;7.15;;;;;;;22.47;19.64;93667.59;5026680;28;20197;-78